createdAt,value
2023-01-08T00:02:07.645Z,3.9
2023-01-08T00:05:07.642Z,3.9
2023-01-08T00:08:07.647Z,3.9
2023-01-08T00:11:07.678Z,3.9
2023-01-08T00:14:07.798Z,3.8
2023-01-08T00:17:07.657Z,3.7
2023-01-08T00:20:07.663Z,3.7
2023-01-08T00:23:07.660Z,3.7
2023-01-08T00:26:07.669Z,3.7
2023-01-08T00:29:07.669Z,3.7
2023-01-08T00:32:07.794Z,3.7
2023-01-08T00:35:07.675Z,3.7
2023-01-08T00:38:07.683Z,3.7
2023-01-08T00:41:07.685Z,3.8
2023-01-08T00:44:07.686Z,3.9
2023-01-08T00:47:07.691Z,4
2023-01-08T00:50:07.719Z,4.1
2023-01-08T00:53:07.705Z,4.2
2023-01-08T00:56:07.699Z,4.2
2023-01-08T00:59:07.701Z,4.3
2023-01-08T01:02:07.856Z,4.3
2023-01-08T01:05:07.703Z,4.4
2023-01-08T01:08:07.832Z,4.3
2023-01-08T01:11:07.720Z,4.3
2023-01-08T01:14:07.723Z,4.3
2023-01-08T01:17:07.740Z,4.3
2023-01-08T01:20:07.747Z,4.3
2023-01-08T01:23:07.745Z,4.3
2023-01-08T01:26:07.773Z,4.3
2023-01-08T01:29:07.759Z,4.4
2023-01-08T01:32:07.758Z,4.5
2023-01-08T01:35:07.759Z,4.5
2023-01-08T01:38:07.769Z,4.6
2023-01-08T01:41:07.774Z,4.6
2023-01-08T01:44:07.906Z,4.7
2023-01-08T01:47:07.777Z,4.7
2023-01-08T01:50:07.794Z,4.8
2023-01-08T01:53:07.786Z,4.7
2023-01-08T01:56:07.817Z,4.7
2023-01-08T01:59:07.801Z,4.6
2023-01-08T02:02:08.021Z,4.5
2023-01-08T02:05:07.809Z,4.5
2023-01-08T02:08:07.829Z,4.4
2023-01-08T02:11:07.823Z,4.3
2023-01-08T02:14:07.826Z,4.3
2023-01-08T02:17:07.835Z,4.3
2023-01-08T02:20:07.862Z,4.3
2023-01-08T02:23:07.852Z,4.3
2023-01-08T02:26:07.861Z,4.4
2023-01-08T02:29:07.865Z,4.4
2023-01-08T02:32:07.863Z,4.4
2023-01-08T02:35:07.870Z,4.5
2023-01-08T02:38:07.997Z,4.6
2023-01-08T02:41:07.892Z,4.7
2023-01-08T02:44:07.893Z,4.7
2023-01-08T02:47:07.901Z,4.8
2023-01-08T02:50:07.913Z,4.8
2023-01-08T02:53:07.917Z,4.8
2023-01-08T02:56:08.041Z,4.8
2023-01-08T02:59:07.927Z,4.8
2023-01-08T03:02:08.020Z,4.7
2023-01-08T03:05:07.938Z,4.8
2023-01-08T03:08:07.964Z,4.8
2023-01-08T03:11:07.952Z,4.8
2023-01-08T03:14:08.085Z,4.8
2023-01-08T03:17:07.974Z,4.8
2023-01-08T03:20:07.976Z,4.8
2023-01-08T03:23:07.992Z,4.8
2023-01-08T03:26:07.990Z,4.8
2023-01-08T03:29:08.010Z,4.8
2023-01-08T03:32:08.734Z,4.8
2023-01-08T03:35:08.015Z,4.9
2023-01-08T03:38:08.033Z,4.9
2023-01-08T03:41:08.029Z,4.9
2023-01-08T03:44:08.042Z,5
2023-01-08T03:47:08.052Z,5
2023-01-08T03:50:08.180Z,5.1
2023-01-08T03:53:08.072Z,5.1
2023-01-08T03:56:08.073Z,5.2
2023-01-08T03:59:08.084Z,5.2
2023-01-08T04:02:08.180Z,5.3
2023-01-08T04:05:08.103Z,5.3
2023-01-08T04:08:08.223Z,5.3
2023-01-08T04:11:08.121Z,5.4
2023-01-08T04:14:08.127Z,5.4
2023-01-08T04:17:08.129Z,5.4
2023-01-08T04:20:08.140Z,5.4
2023-01-08T04:23:08.155Z,5.4
2023-01-08T04:26:08.299Z,5.4
2023-01-08T04:29:08.183Z,5.5
2023-01-08T04:32:08.178Z,5.5
2023-01-08T04:35:08.185Z,5.5
2023-01-08T04:38:09.061Z,5.6
2023-01-08T04:41:08.210Z,5.6
2023-01-08T04:44:08.337Z,5.6
2023-01-08T04:47:08.229Z,5.7
2023-01-08T04:50:08.229Z,5.7
2023-01-08T04:53:08.237Z,5.8
2023-01-08T04:56:08.261Z,6
2023-01-08T04:59:08.260Z,6
2023-01-08T05:02:08.482Z,6
2023-01-08T05:05:08.268Z,6.1
2023-01-08T05:08:08.271Z,6.1
2023-01-08T05:11:08.286Z,6.1
2023-01-08T05:14:08.285Z,6.1
2023-01-08T05:17:08.288Z,6.1
2023-01-08T05:20:08.416Z,6.1
2023-01-08T05:23:08.295Z,6.2
2023-01-08T05:26:08.306Z,6.1
2023-01-08T05:29:08.336Z,6.1
2023-01-08T05:32:08.317Z,6.1
2023-01-08T05:35:08.325Z,6.1
2023-01-08T05:38:08.446Z,6.1
2023-01-08T05:41:08.335Z,6.1
2023-01-08T05:44:08.339Z,6
2023-01-08T05:47:08.338Z,6
2023-01-08T05:50:08.355Z,6
2023-01-08T05:53:08.367Z,6
2023-01-08T05:56:09.359Z,5.9
2023-01-08T05:59:08.366Z,5.9
2023-01-08T06:02:08.362Z,5.9
2023-01-08T06:05:08.363Z,6
2023-01-08T06:08:08.773Z,6
2023-01-08T06:11:08.375Z,6
2023-01-08T06:14:08.492Z,6
2023-01-08T06:17:08.391Z,6.1
2023-01-08T06:20:08.386Z,6.1
2023-01-08T06:23:08.390Z,6.1
2023-01-08T06:26:08.391Z,6.1
2023-01-08T06:29:08.409Z,6.2
2023-01-08T06:32:08.521Z,6.1
2023-01-08T06:35:08.406Z,6.2
2023-01-08T06:38:08.407Z,6.2
2023-01-08T06:41:08.421Z,6.2
2023-01-08T06:44:08.424Z,6.2
2023-01-08T06:47:08.430Z,6.2
2023-01-08T06:50:08.550Z,6.2
2023-01-08T06:53:08.436Z,6.2
2023-01-08T06:56:08.445Z,6.2
2023-01-08T06:59:08.439Z,6.2
2023-01-08T07:02:08.554Z,6.2
2023-01-08T07:05:08.449Z,6.2
2023-01-08T07:08:08.575Z,6.2
2023-01-08T07:11:08.459Z,6.2
2023-01-08T07:14:08.463Z,6.3
2023-01-08T07:17:08.474Z,6.3
2023-01-08T07:20:08.482Z,6.3
2023-01-08T07:23:08.481Z,6.3
2023-01-08T07:26:08.605Z,6.3
2023-01-08T07:29:08.504Z,6.3
2023-01-08T07:32:08.499Z,6.3
2023-01-08T07:35:08.501Z,6.3
2023-01-08T07:38:08.510Z,6.3
2023-01-08T07:41:08.502Z,6.4
2023-01-08T07:44:08.625Z,6.4
2023-01-08T07:47:08.516Z,6.4
2023-01-08T07:50:08.526Z,6.4
2023-01-08T07:53:08.525Z,6.4
2023-01-08T07:56:08.528Z,6.4
2023-01-08T07:59:08.535Z,6.5
2023-01-08T08:02:08.744Z,6.5
2023-01-08T08:05:08.544Z,6.5
2023-01-08T08:08:08.549Z,6.5
2023-01-08T08:11:08.551Z,6.6
2023-01-08T08:14:08.558Z,6.6
2023-01-08T08:17:08.566Z,6.6
2023-01-08T08:20:08.697Z,6.7
2023-01-08T08:23:08.570Z,6.7
2023-01-08T08:26:08.576Z,6.7
2023-01-08T08:29:08.580Z,6.7
2023-01-08T08:32:08.586Z,6.8
2023-01-08T08:35:08.589Z,6.8
2023-01-08T08:38:08.744Z,6.8
2023-01-08T08:41:08.602Z,6.9
2023-01-08T08:44:08.599Z,6.9
2023-01-08T08:47:08.600Z,6.9
2023-01-08T08:50:08.612Z,7
2023-01-08T08:53:08.622Z,7
2023-01-08T08:56:08.684Z,7
2023-01-08T08:59:08.625Z,7.1
2023-01-08T09:02:08.846Z,7.2
2023-01-08T09:05:08.636Z,7.2
2023-01-08T09:08:08.631Z,7.3
2023-01-08T09:11:08.638Z,7.4
2023-01-08T09:14:08.762Z,7.5
2023-01-08T09:17:08.657Z,7.6
2023-01-08T09:20:08.863Z,7.6
2023-01-08T09:23:08.653Z,7.7
2023-01-08T09:26:08.659Z,7.7
2023-01-08T09:29:08.660Z,7.8
2023-01-08T09:32:08.793Z,7.9
2023-01-08T09:35:08.672Z,7.9
2023-01-08T09:38:08.679Z,7.9
2023-01-08T09:41:08.708Z,7.9
2023-01-08T09:44:08.684Z,7.9
2023-01-08T09:47:08.691Z,7.9
2023-01-08T09:50:08.820Z,7.9
2023-01-08T09:53:08.700Z,8
2023-01-08T09:56:10.583Z,8
2023-01-08T09:59:08.710Z,8.1
2023-01-08T10:02:08.883Z,8.1
2023-01-08T10:05:08.723Z,8
2023-01-08T10:08:08.741Z,8.1
2023-01-08T10:11:08.720Z,8.1
2023-01-08T10:14:08.716Z,8.2
2023-01-08T10:17:11.340Z,8.1
2023-01-08T10:20:08.728Z,8.1
2023-01-08T10:23:08.727Z,8.1
2023-01-08T10:26:08.861Z,8.1
2023-01-08T10:29:08.735Z,8.1
2023-01-08T10:32:08.742Z,8.1
2023-01-08T10:35:08.747Z,8.1
2023-01-08T10:38:08.759Z,8.2
2023-01-08T10:41:08.763Z,8.2
2023-01-08T10:44:08.876Z,8.3
2023-01-08T10:47:08.767Z,8.3
2023-01-08T10:50:08.772Z,8.3
2023-01-08T10:53:08.771Z,8.2
2023-01-08T10:56:08.774Z,8.2
2023-01-08T10:59:08.779Z,8.2
2023-01-08T11:02:08.909Z,8.3
2023-01-08T11:05:08.784Z,8.3
2023-01-08T11:08:08.798Z,8.2
2023-01-08T11:11:08.798Z,8.2
2023-01-08T11:14:08.835Z,8.2
2023-01-08T11:17:08.806Z,8.2
2023-01-08T11:20:08.926Z,8.2
2023-01-08T11:23:08.810Z,8.1
2023-01-08T11:26:08.813Z,8.1
2023-01-08T11:29:08.813Z,8.1
2023-01-08T11:32:08.821Z,8
2023-01-08T11:35:08.820Z,8
2023-01-08T11:38:08.851Z,7.9
2023-01-08T11:41:08.822Z,7.9
2023-01-08T11:44:08.821Z,7.9
2023-01-08T11:47:08.834Z,7.9
2023-01-08T11:50:08.828Z,7.9
2023-01-08T11:53:08.846Z,7.9
2023-01-08T11:56:08.872Z,7.9
2023-01-08T11:59:08.864Z,7.9
2023-01-08T12:02:08.908Z,7.9
2023-01-08T12:05:08.881Z,7.8
2023-01-08T12:08:08.885Z,7.8
2023-01-08T12:11:08.892Z,7.8
2023-01-08T12:14:08.925Z,7.8
2023-01-08T12:17:08.901Z,7.8
2023-01-08T12:20:08.901Z,7.8
2023-01-08T12:23:08.911Z,7.8
2023-01-08T12:26:08.923Z,7.8
2023-01-08T12:29:08.930Z,7.7
2023-01-08T12:32:08.983Z,7.7
2023-01-08T12:35:08.938Z,7.7
2023-01-08T12:38:08.937Z,7.8
2023-01-08T12:41:08.935Z,7.8
2023-01-08T12:44:08.948Z,7.8
2023-01-08T12:47:08.946Z,7.8
2023-01-08T12:50:08.981Z,7.7
2023-01-08T12:53:08.958Z,7.7
2023-01-08T12:56:08.974Z,7.8
2023-01-08T12:59:08.977Z,7.7
2023-01-08T13:02:09.179Z,7.7
2023-01-08T13:05:08.985Z,7.7
2023-01-08T13:08:09.017Z,7.7
2023-01-08T13:11:08.990Z,7.7
2023-01-08T13:14:09.194Z,7.7
2023-01-08T13:17:08.997Z,7.7
2023-01-08T13:20:09.018Z,7.7
2023-01-08T13:23:09.013Z,7.7
2023-01-08T13:26:09.141Z,7.7
2023-01-08T13:29:09.126Z,7.7
2023-01-08T13:32:09.030Z,7.8
2023-01-08T13:35:09.040Z,7.8
2023-01-08T13:38:09.039Z,7.8
2023-01-08T13:41:09.040Z,7.8
2023-01-08T13:44:09.077Z,7.9
2023-01-08T13:47:09.049Z,7.9
2023-01-08T13:50:09.054Z,7.9
2023-01-08T13:53:09.056Z,7.9
2023-01-08T13:56:09.059Z,7.9
2023-01-08T13:59:09.062Z,7.8
2023-01-08T14:02:09.196Z,7.8
2023-01-08T14:05:09.076Z,7.7
2023-01-08T14:08:09.084Z,7.6
2023-01-08T14:11:09.082Z,7.6
2023-01-08T14:14:09.086Z,7.6
2023-01-08T14:17:09.094Z,7.6
2023-01-08T14:20:09.122Z,7.6
2023-01-08T14:23:09.103Z,7.6
2023-01-08T14:26:09.111Z,7.6
2023-01-08T14:29:09.110Z,7.7
2023-01-08T14:32:09.124Z,7.7
2023-01-08T14:35:09.124Z,7.7
2023-01-08T14:38:09.254Z,7.6
2023-01-08T14:41:09.138Z,7.5
2023-01-08T14:44:09.137Z,7.3
2023-01-08T14:47:09.143Z,7.2
2023-01-08T14:50:09.145Z,7
2023-01-08T14:53:09.146Z,7
2023-01-08T14:56:09.175Z,7
2023-01-08T14:59:09.147Z,6.9
2023-01-08T15:02:09.354Z,6.9
2023-01-08T15:05:09.149Z,6.9
2023-01-08T15:08:09.152Z,6.9
2023-01-08T15:11:09.148Z,6.9
2023-01-08T15:14:09.182Z,6.8
2023-01-08T15:17:09.173Z,6.8
2023-01-08T15:20:09.171Z,6.8
2023-01-08T15:23:09.166Z,6.8
2023-01-08T15:26:09.182Z,6.9
2023-01-08T15:29:09.176Z,6.9
2023-01-08T15:32:09.202Z,6.9
2023-01-08T15:35:09.184Z,6.9
2023-01-08T15:38:09.188Z,6.9
2023-01-08T15:41:09.188Z,6.8
2023-01-08T15:44:09.196Z,6.7
2023-01-08T15:47:09.208Z,6.7
2023-01-08T15:50:09.226Z,6.7
2023-01-08T15:53:09.209Z,6.7
2023-01-08T15:56:09.223Z,6.7
2023-01-08T15:59:09.215Z,6.7
2023-01-08T16:02:09.323Z,6.7
2023-01-08T16:05:09.226Z,6.7
2023-01-08T16:08:09.254Z,6.8
2023-01-08T16:11:09.244Z,6.8
2023-01-08T16:14:09.253Z,6.8
2023-01-08T16:17:09.247Z,6.9
2023-01-08T16:20:09.263Z,6.8
2023-01-08T16:23:09.264Z,6.8
2023-01-08T16:26:09.295Z,6.7
2023-01-08T16:29:09.278Z,6.6
2023-01-08T16:32:09.276Z,6.5
2023-01-08T16:35:09.274Z,6.4
2023-01-08T16:38:09.285Z,6.4
2023-01-08T16:41:09.287Z,6.3
2023-01-08T16:44:09.318Z,6.2
2023-01-08T16:47:09.293Z,6.2
2023-01-08T16:50:09.305Z,6.2
2023-01-08T16:53:09.305Z,6.2
2023-01-08T16:56:09.310Z,6.1
2023-01-08T16:59:22.160Z,6.1
2023-01-08T17:02:09.351Z,6.1
2023-01-08T17:05:09.331Z,6.1
2023-01-08T17:08:09.327Z,6
2023-01-08T17:11:09.366Z,6
2023-01-08T17:14:09.343Z,6
2023-01-08T17:17:09.346Z,6
2023-01-08T17:20:09.378Z,6
2023-01-08T17:23:09.358Z,6
2023-01-08T17:26:09.364Z,6
2023-01-08T17:29:09.369Z,6.1
2023-01-08T17:32:09.369Z,6.1
2023-01-08T17:35:09.373Z,6.1
2023-01-08T17:38:09.398Z,6.1
2023-01-08T17:41:09.382Z,6.1
2023-01-08T17:44:09.387Z,6.1
2023-01-08T17:47:09.392Z,6.2
2023-01-08T17:50:09.413Z,6.1
2023-01-08T17:53:09.404Z,6.1
2023-01-08T17:56:09.429Z,6.1
2023-01-08T17:59:09.413Z,6.1
2023-01-08T18:02:09.485Z,6
2023-01-08T18:05:09.490Z,6
2023-01-08T18:08:09.448Z,6
2023-01-08T18:11:09.460Z,6
2023-01-08T18:14:09.531Z,5.9
2023-01-08T18:17:09.634Z,5.9
2023-01-08T18:20:09.505Z,6
2023-01-08T18:23:09.502Z,6
2023-01-08T18:26:11.429Z,5.9
2023-01-08T18:29:09.503Z,5.8
2023-01-08T18:32:09.541Z,5.7
2023-01-08T18:35:09.528Z,5.7
2023-01-08T18:38:09.520Z,5.8
2023-01-08T18:41:09.533Z,5.8
2023-01-08T18:44:09.517Z,5.8
2023-01-08T18:47:09.522Z,5.9
2023-01-08T18:50:09.577Z,5.9
2023-01-08T18:53:09.521Z,5.9
2023-01-08T18:56:09.519Z,6
2023-01-08T18:59:09.531Z,6
2023-01-08T19:02:09.593Z,6
2023-01-08T19:05:09.525Z,6
2023-01-08T19:08:09.548Z,6
2023-01-08T19:11:09.536Z,5.9
2023-01-08T19:14:09.525Z,5.9
2023-01-08T19:17:09.541Z,5.9
2023-01-08T19:20:09.538Z,5.9
2023-01-08T19:23:09.540Z,6
2023-01-08T19:26:09.567Z,6
2023-01-08T19:29:09.544Z,5.9
2023-01-08T19:32:09.549Z,5.9
2023-01-08T19:35:09.536Z,5.9
2023-01-08T19:38:09.544Z,5.7
2023-01-08T19:41:09.548Z,5.7
2023-01-08T19:44:09.574Z,5.7
2023-01-08T19:47:09.547Z,5.7
2023-01-08T19:50:09.544Z,5.8
2023-01-08T19:53:09.553Z,5.8
2023-01-08T19:56:09.552Z,5.8
2023-01-08T19:59:09.562Z,5.9
2023-01-08T20:02:09.660Z,5.9
2023-01-08T20:05:09.559Z,5.9
2023-01-08T20:08:09.558Z,6
2023-01-08T20:11:09.573Z,6
2023-01-08T20:14:09.560Z,6
2023-01-08T20:17:09.567Z,6
2023-01-08T20:20:09.606Z,6
2023-01-08T20:23:09.563Z,6.1
2023-01-08T20:26:09.573Z,6
2023-01-08T20:29:09.574Z,6
2023-01-08T20:32:09.568Z,6
2023-01-08T20:35:09.573Z,6
2023-01-08T20:38:09.606Z,6
2023-01-08T20:41:09.582Z,6
2023-01-08T20:44:09.581Z,6
2023-01-08T20:47:09.585Z,6
2023-01-08T20:50:19.308Z,6
2023-01-08T20:53:09.589Z,5.9
2023-01-08T20:56:09.647Z,5.9
2023-01-08T20:59:09.612Z,5.8
2023-01-08T21:02:09.605Z,5.7
2023-01-08T21:05:09.619Z,5.6
2023-01-08T21:08:09.617Z,5.5
2023-01-08T21:11:09.617Z,5.3
2023-01-08T21:14:09.645Z,5.3
2023-01-08T21:17:09.634Z,5.1
2023-01-08T21:20:09.632Z,5
2023-01-08T21:23:09.640Z,4.9
2023-01-08T21:26:09.646Z,4.8
2023-01-08T21:29:09.708Z,4.7
2023-01-08T21:32:09.840Z,4.6
2023-01-08T21:35:09.648Z,4.6
2023-01-08T21:38:09.786Z,4.6
2023-01-08T21:41:09.655Z,4.7
2023-01-08T21:44:09.655Z,4.7
2023-01-08T21:47:09.675Z,4.7
2023-01-08T21:50:09.694Z,4.6
2023-01-08T21:53:09.694Z,4.5
2023-01-08T21:56:09.691Z,4.5
2023-01-08T21:59:09.703Z,4.5
2023-01-08T22:02:09.695Z,4.5
2023-01-08T22:05:09.703Z,4.6
2023-01-08T22:08:09.731Z,4.5
2023-01-08T22:11:09.735Z,4.4
2023-01-08T22:14:09.718Z,4.4
2023-01-08T22:17:09.736Z,4.5
2023-01-08T22:20:09.763Z,4.5
2023-01-08T22:23:09.734Z,4.5
2023-01-08T22:26:09.763Z,4.5
2023-01-08T22:29:09.744Z,4.5
2023-01-08T22:32:09.758Z,4.5
2023-01-08T22:35:09.775Z,4.5
2023-01-08T22:38:09.766Z,4.5
2023-01-08T22:41:09.779Z,4.6
2023-01-08T22:44:09.807Z,4.6
2023-01-08T22:47:09.784Z,4.6
2023-01-08T22:50:09.802Z,4.6
2023-01-08T22:53:09.798Z,4.7
2023-01-08T22:56:09.808Z,4.6
2023-01-08T22:59:09.808Z,4.7
2023-01-08T23:02:09.846Z,4.7
2023-01-08T23:05:09.836Z,4.6
2023-01-08T23:08:09.824Z,4.6
2023-01-08T23:11:09.878Z,4.6
2023-01-08T23:14:09.838Z,4.5
2023-01-08T23:17:09.845Z,4.5
2023-01-08T23:20:09.869Z,4.4
2023-01-08T23:23:09.847Z,4.4
2023-01-08T23:26:09.852Z,4.4
2023-01-08T23:29:09.862Z,4.3
2023-01-08T23:32:09.863Z,4.4
2023-01-08T23:35:09.866Z,4.3
2023-01-08T23:38:09.897Z,4.2
2023-01-08T23:41:09.874Z,4.1
2023-01-08T23:44:09.868Z,4.2
2023-01-08T23:47:09.881Z,4.2
2023-01-08T23:50:09.883Z,4.2
2023-01-08T23:53:09.886Z,4.2
2023-01-08T23:56:09.916Z,4.2
2023-01-08T23:59:09.892Z,4.2
